Time,TemperatureF,DewpointF,PressureIn,WindDirection,WindDirectionDegrees,WindSpeedMPH,WindSpeedGustMPH,Humidity,HourlyPrecipIn,Conditions,Clouds,dailyrainin,SolarRadiationWatts/m^2,SoftwareType,DateUTC
2013-01-31 00:05:00,43.3,41.0,30.18,SE,142,1.0,3.0,91,0.00,,,0.00,0,weatherlink.com 1.10,2013-01-31 08:05:00,
2013-01-31 00:20:00,43.3,41.0,30.18,SE,140,3.0,3.0,91,0.00,,,0.00,0,weatherlink.com 1.10,2013-01-31 08:20:00,
2013-01-31 00:35:00,43.4,41.0,30.18,SE,140,2.0,3.0,91,0.00,,,0.00,0,weatherlink.com 1.10,2013-01-31 08:35:00,
2013-01-31 00:50:00,43.6,41.0,30.18,SE,140,2.0,3.0,91,0.00,,,0.00,0,weatherlink.com 1.10,2013-01-31 08:50:00,
2013-01-31 01:05:00,43.4,41.0,30.17,SE,139,2.0,3.0,90,0.00,,,0.00,0,weatherlink.com 1.10,2013-01-31 09:05:00,
2013-01-31 01:20:00,43.2,41.0,30.18,SE,139,2.0,2.0,91,0.00,,,0.00,0,weatherlink.com 1.10,2013-01-31 09:20:00,
2013-01-31 01:35:00,42.9,41.0,30.18,SE,139,2.0,3.0,91,0.00,,,0.00,0,weatherlink.com 1.10,2013-01-31 09:35:00,
2013-01-31 01:50:00,42.8,40.0,30.18,SE,144,2.0,3.0,91,0.00,,,0.00,0,weatherlink.com 1.10,2013-01-31 09:50:00,
2013-01-31 02:05:00,42.9,40.0,30.18,SE,143,3.0,3.0,89,0.00,,,0.00,0,weatherlink.com 1.10,2013-01-31 10:05:00,
2013-01-31 02:20:00,43.4,40.0,30.17,NE,53,1.0,3.0,87,0.00,,,0.00,0,weatherlink.com 1.10,2013-01-31 10:20:00,
2013-01-31 02:35:00,43.1,40.0,30.17,SE,132,2.0,3.0,88,0.00,,,0.00,0,weatherlink.com 1.10,2013-01-31 10:35:00,
2013-01-31 02:50:00,43.2,40.0,30.17,SE,136,2.0,3.0,87,0.00,,,0.00,0,weatherlink.com 1.10,2013-01-31 10:50:00,
2013-01-31 03:05:00,42.9,39.0,30.16,SE,138,2.0,3.0,86,0.00,,,0.00,0,weatherlink.com 1.10,2013-01-31 11:05:00,
2013-01-31 03:20:00,43.2,39.0,30.16,SE,137,1.0,3.0,86,0.00,,,0.00,0,weatherlink.com 1.10,2013-01-31 11:20:00,
2013-01-31 03:35:00,43.7,40.0,30.16,SE,137,2.0,2.0,86,0.00,,,0.00,0,weatherlink.com 1.10,2013-01-31 11:35:00,
2013-01-31 03:50:00,43.6,40.0,30.16,SE,137,3.0,3.0,87,0.00,,,0.00,0,weatherlink.com 1.10,2013-01-31 11:50:00,
2013-01-31 04:05:00,43.7,40.0,30.16,SE,143,2.0,3.0,87,0.00,,,0.00,0,weatherlink.com 1.10,2013-01-31 12:05:00,
2013-01-31 04:20:00,43.6,40.0,30.16,SE,146,2.0,3.0,88,0.00,,,0.00,0,weatherlink.com 1.10,2013-01-31 12:20:00,
2013-01-31 04:35:00,43.8,40.0,30.16,SSE,150,1.0,2.0,87,0.00,,,0.00,0,weatherlink.com 1.10,2013-01-31 12:35:00,
2013-01-31 04:50:00,43.6,40.0,30.16,SSE,150,2.0,2.0,88,0.00,,,0.00,0,weatherlink.com 1.10,2013-01-31 12:50:00,
2013-01-31 05:05:00,43.2,40.0,30.16,SSE,149,2.0,3.0,88,0.00,,,0.00,0,weatherlink.com 1.10,2013-01-31 13:05:00,
2013-01-31 05:20:00,42.8,40.0,30.16,SE,145,2.0,3.0,89,0.00,,,0.00,0,weatherlink.com 1.10,2013-01-31 13:20:00,
2013-01-31 05:35:00,43.1,40.0,30.16,SE,145,0.0,2.0,88,0.00,,,0.00,0,weatherlink.com 1.10,2013-01-31 13:35:00,
2013-01-31 05:50:00,42.6,40.0,30.17,SE,145,2.0,3.0,89,0.00,,,0.00,0,weatherlink.com 1.10,2013-01-31 13:50:00,
2013-01-31 06:05:00,42.4,39.0,30.17,SE,145,3.0,3.0,89,0.00,,,0.00,0,weatherlink.com 1.10,2013-01-31 14:05:00,
2013-01-31 06:20:00,42.6,39.0,30.17,SE,143,1.0,2.0,88,0.00,,,0.00,0,weatherlink.com 1.10,2013-01-31 14:20:00,
2013-01-31 06:35:00,43.1,40.0,30.17,SE,143,1.0,2.0,87,0.00,,,0.00,0,weatherlink.com 1.10,2013-01-31 14:35:00,
2013-01-31 06:50:00,43.0,39.0,30.17,SE,143,1.0,2.0,87,0.00,,,0.00,0,weatherlink.com 1.10,2013-01-31 14:50:00,
2013-01-31 07:05:00,43.1,39.0,30.17,SE,143,1.0,2.0,86,0.00,,,0.00,0,weatherlink.com 1.10,2013-01-31 15:05:00,
2013-01-31 07:20:00,42.7,39.0,30.18,SE,143,1.0,3.0,86,0.00,,,0.00,7,weatherlink.com 1.10,2013-01-31 15:20:00,
2013-01-31 07:35:00,42.5,39.0,30.18,SE,143,1.0,3.0,86,0.00,,,0.00,12,weatherlink.com 1.10,2013-01-31 15:35:00,
2013-01-31 07:50:00,42.4,39.0,30.18,SE,143,2.0,3.0,87,0.00,,,0.00,16,weatherlink.com 1.10,2013-01-31 15:50:00,
2013-01-31 08:05:00,42.9,39.0,30.19,SE,143,1.0,2.0,87,0.00,,,0.00,19,weatherlink.com 1.10,2013-01-31 16:05:00,
2013-01-31 08:21:00,43.3,40.0,30.19,SE,143,0.0,1.0,87,0.00,,,0.00,23,weatherlink.com 1.10,2013-01-31 16:21:00,
2013-01-31 08:36:00,43.4,40.0,30.19,SE,143,1.0,2.0,88,0.00,,,0.00,25,weatherlink.com 1.10,2013-01-31 16:36:00,
2013-01-31 08:51:00,46.0,42.0,30.19,SE,143,0.0,2.0,85,0.00,,,0.00,253,weatherlink.com 1.10,2013-01-31 16:51:00,
2013-01-31 09:05:00,48.0,42.0,30.20,SE,143,0.0,0.0,81,0.00,,,0.00,299,weatherlink.com 1.10,2013-01-31 17:05:00,
2013-01-31 09:20:00,49.6,42.0,30.20,SE,143,0.0,1.0,76,0.00,,,0.00,352,weatherlink.com 1.10,2013-01-31 17:20:00,
2013-01-31 09:36:00,51.3,43.0,30.20,SE,143,0.0,1.0,73,0.00,,,0.00,396,weatherlink.com 1.10,2013-01-31 17:36:00,
2013-01-31 09:51:00,54.1,44.0,30.19,West,268,0.0,1.0,69,0.00,,,0.00,436,weatherlink.com 1.10,2013-01-31 17:51:00,
2013-01-31 10:21:00,57.8,46.0,30.19,WNW,282,0.0,2.0,65,0.00,,,0.00,506,weatherlink.com 1.10,2013-01-31 18:21:00,
2013-01-31 10:36:00,59.3,47.0,30.18,WNW,296,1.0,2.0,64,0.00,,,0.00,533,weatherlink.com 1.10,2013-01-31 18:36:00,
2013-01-31 10:51:00,61.0,45.0,30.18,NNW,340,2.0,2.0,57,0.00,,,0.00,561,weatherlink.com 1.10,2013-01-31 18:51:00,
2013-01-31 11:06:00,60.2,46.0,30.17,NNW,327,0.0,2.0,59,0.00,,,0.00,584,weatherlink.com 1.10,2013-01-31 19:06:00,
2013-01-31 11:21:00,62.8,45.0,30.17,SW,229,2.0,3.0,53,0.00,,,0.00,603,weatherlink.com 1.10,2013-01-31 19:21:00,
2013-01-31 11:36:00,63.9,44.0,30.17,North,5,2.0,4.0,49,0.00,,,0.00,615,weatherlink.com 1.10,2013-01-31 19:36:00,
2013-01-31 12:07:00,64.0,43.0,30.15,NE,34,4.0,6.0,46,0.00,,,0.00,635,weatherlink.com 1.10,2013-01-31 20:07:00,
2013-01-31 12:21:00,64.1,44.0,30.14,North,350,5.0,5.0,48,0.00,,,0.00,635,weatherlink.com 1.10,2013-01-31 20:21:00,
2013-01-31 12:36:00,64.6,41.0,30.14,North,349,2.0,5.0,43,0.00,,,0.00,636,weatherlink.com 1.10,2013-01-31 20:36:00,
2013-01-31 12:51:00,65.1,41.0,30.13,NE,40,1.0,4.0,41,0.00,,,0.00,631,weatherlink.com 1.10,2013-01-31 20:51:00,
2013-01-31 13:06:00,67.0,45.0,30.13,NW,312,4.0,6.0,46,0.00,,,0.00,619,weatherlink.com 1.10,2013-01-31 21:06:00,
2013-01-31 13:21:00,67.7,47.0,30.12,WSW,242,1.0,5.0,47,0.00,,,0.00,606,weatherlink.com 1.10,2013-01-31 21:21:00,
2013-01-31 13:37:00,68.5,48.0,30.12,NNW,329,2.0,6.0,48,0.00,,,0.00,589,weatherlink.com 1.10,2013-01-31 21:37:00,
2013-01-31 13:52:00,67.7,48.0,30.11,WNW,290,3.0,6.0,50,0.00,,,0.00,571,weatherlink.com 1.10,2013-01-31 21:52:00,
2013-01-31 14:07:00,68.1,48.0,30.11,South,184,1.0,4.0,48,0.00,,,0.00,545,weatherlink.com 1.10,2013-01-31 22:07:00,
2013-01-31 14:37:00,68.7,45.0,30.10,West,264,2.0,4.0,42,0.00,,,0.00,485,weatherlink.com 1.10,2013-01-31 22:37:00,
2013-01-31 14:52:00,68.6,43.0,30.10,West,262,4.0,6.0,40,0.00,,,0.00,455,weatherlink.com 1.10,2013-01-31 22:52:00,
2013-01-31 15:07:00,68.2,41.0,30.10,North,5,3.0,4.0,38,0.00,,,0.00,418,weatherlink.com 1.10,2013-01-31 23:07:00,
2013-01-31 15:22:00,67.9,40.0,30.09,SW,215,2.0,5.0,36,0.00,,,0.00,380,weatherlink.com 1.10,2013-01-31 23:22:00,
2013-01-31 15:37:00,67.1,41.0,30.09,NW,317,2.0,5.0,38,0.00,,,0.00,336,weatherlink.com 1.10,2013-01-31 23:37:00,
2013-01-31 15:52:00,65.9,41.0,30.09,WNW,298,2.0,5.0,41,0.00,,,0.00,290,weatherlink.com 1.10,2013-01-31 23:52:00,
2013-01-31 16:07:00,64.3,42.0,30.09,WSW,252,2.0,4.0,44,0.00,,,0.00,83,weatherlink.com 1.10,2013-02-01 00:07:00,
2013-01-31 16:22:00,62.5,42.0,30.09,West,267,4.0,4.0,48,0.00,,,0.00,37,weatherlink.com 1.10,2013-02-01 00:22:00,
2013-01-31 16:37:00,60.7,43.0,30.09,WSW,247,1.0,4.0,52,0.00,,,0.00,26,weatherlink.com 1.10,2013-02-01 00:37:00,
2013-01-31 16:52:00,59.1,44.0,30.09,West,266,1.0,3.0,57,0.00,,,0.00,21,weatherlink.com 1.10,2013-02-01 00:52:00,
2013-01-31 17:07:00,56.9,44.0,30.09,SSE,154,1.0,3.0,63,0.00,,,0.00,16,weatherlink.com 1.10,2013-02-01 01:07:00,
2013-01-31 17:22:00,55.5,44.0,30.09,SSE,154,1.0,2.0,66,0.00,,,0.00,9,weatherlink.com 1.10,2013-02-01 01:22:00,
2013-01-31 17:37:00,54.1,45.0,30.09,SSE,154,2.0,3.0,70,0.00,,,0.00,0,weatherlink.com 1.10,2013-02-01 01:37:00,
2013-01-31 17:52:00,53.4,45.0,30.09,SSE,154,1.0,3.0,72,0.00,,,0.00,0,weatherlink.com 1.10,2013-02-01 01:52:00,
2013-01-31 18:07:00,53.2,44.0,30.09,SE,138,2.0,3.0,72,0.00,,,0.00,0,weatherlink.com 1.10,2013-02-01 02:07:00,
2013-01-31 18:22:00,52.1,44.0,30.10,SE,138,2.0,3.0,73,0.00,,,0.00,0,weatherlink.com 1.10,2013-02-01 02:22:00,
2013-01-31 18:52:00,50.1,44.0,30.10,SE,138,2.0,3.0,78,0.00,,,0.00,0,weatherlink.com 1.10,2013-02-01 02:52:00,
2013-01-31 19:07:00,49.8,44.0,30.10,SE,138,3.0,4.0,79,0.00,,,0.00,0,weatherlink.com 1.10,2013-02-01 03:07:00,
2013-01-31 19:22:00,49.3,44.0,30.10,SE,138,2.0,3.0,81,0.00,,,0.00,0,weatherlink.com 1.10,2013-02-01 03:22:00,
2013-01-31 19:37:00,49.3,44.0,30.10,SE,138,2.0,3.0,81,0.00,,,0.00,0,weatherlink.com 1.10,2013-02-01 03:37:00,
2013-01-31 19:52:00,48.5,44.0,30.10,SE,138,2.0,3.0,83,0.00,,,0.00,0,weatherlink.com 1.10,2013-02-01 03:52:00,
2013-01-31 20:07:00,48.2,44.0,30.10,SE,138,2.0,3.0,84,0.00,,,0.00,0,weatherlink.com 1.10,2013-02-01 04:07:00,
2013-01-31 20:23:00,47.5,43.0,30.10,SE,138,2.0,3.0,84,0.00,,,0.00,0,weatherlink.com 1.10,2013-02-01 04:23:00,
2013-01-31 20:37:00,46.8,43.0,30.09,SE,138,2.0,3.0,86,0.00,,,0.00,0,weatherlink.com 1.10,2013-02-01 04:37:00,
2013-01-31 20:52:00,46.5,43.0,30.10,SE,138,2.0,3.0,87,0.00,,,0.00,0,weatherlink.com 1.10,2013-02-01 04:52:00,
2013-01-31 21:07:00,46.6,43.0,30.10,SE,138,3.0,3.0,87,0.00,,,0.00,0,weatherlink.com 1.10,2013-02-01 05:07:00,
2013-01-31 21:22:00,46.1,43.0,30.10,SE,138,2.0,3.0,88,0.00,,,0.00,0,weatherlink.com 1.10,2013-02-01 05:22:00,
2013-01-31 21:37:00,46.2,43.0,30.10,SE,138,3.0,3.0,89,0.00,,,0.00,0,weatherlink.com 1.10,2013-02-01 05:37:00,
2013-01-31 21:52:00,46.4,43.0,30.09,SE,138,2.0,3.0,88,0.00,,,0.00,0,weatherlink.com 1.10,2013-02-01 05:52:00,
2013-01-31 22:22:00,45.6,43.0,30.09,SE,138,2.0,3.0,89,0.00,,,0.00,0,weatherlink.com 1.10,2013-02-01 06:22:00,
2013-01-31 22:37:00,46.0,43.0,30.09,SE,138,1.0,3.0,89,0.00,,,0.00,0,weatherlink.com 1.10,2013-02-01 06:37:00,
2013-01-31 22:53:00,45.8,43.0,30.09,SE,138,2.0,3.0,89,0.00,,,0.00,0,weatherlink.com 1.10,2013-02-01 06:53:00,
2013-01-31 23:07:00,45.4,42.0,30.09,SE,138,2.0,3.0,89,0.00,,,0.00,0,weatherlink.com 1.10,2013-02-01 07:07:00,
2013-01-31 23:22:00,44.8,42.0,30.09,SE,138,1.0,2.0,90,0.00,,,0.00,0,weatherlink.com 1.10,2013-02-01 07:22:00,
2013-01-31 23:38:00,45.0,43.0,30.10,SE,138,2.0,3.0,91,0.00,,,0.00,0,weatherlink.com 1.10,2013-02-01 07:38:00,
2013-01-31 23:52:00,44.4,42.0,30.09,SE,138,3.0,3.0,90,0.00,,,0.00,0,weatherlink.com 1.10,2013-02-01 07:52:00,